createdAt,value
2017-11-15T00:00:35.603Z,75.81
2017-11-15T00:01:35.515Z,75.72
2017-11-15T00:02:35.431Z,75.81
2017-11-15T00:03:35.388Z,76.23
2017-11-15T00:04:35.265Z,75.57
2017-11-15T00:05:35.164Z,75.67
2017-11-15T00:06:35.088Z,75.38
2017-11-15T00:07:34.996Z,75.43
2017-11-15T00:08:34.904Z,75.24
2017-11-15T00:09:34.822Z,75.28
2017-11-15T00:10:34.731Z,75.28
2017-11-15T00:11:34.638Z,75.28
2017-11-15T00:12:34.553Z,75.24
2017-11-15T00:13:34.468Z,75.34
2017-11-15T00:14:34.373Z,75.53
2017-11-15T00:15:34.287Z,75.53
2017-11-15T00:16:34.197Z,75.34
2017-11-15T00:17:34.124Z,75.43
2017-11-15T00:18:34.029Z,75.72
2017-11-15T00:19:33.934Z,75.34
2017-11-15T00:20:33.859Z,74.90
2017-11-15T00:21:33.763Z,74.62
2017-11-15T00:22:33.677Z,74.77
2017-11-15T00:23:33.591Z,74.87
2017-11-15T00:24:33.496Z,74.49
2017-11-15T00:25:33.412Z,74.96
2017-11-15T00:26:33.320Z,75.53
2017-11-15T00:27:33.231Z,76.01
2017-11-15T00:28:33.144Z,75.81
2017-11-15T00:29:33.055Z,75.34
2017-11-15T00:30:32.979Z,75.24
2017-11-15T00:31:32.889Z,75.34
2017-11-15T00:32:32.792Z,76.01
2017-11-15T00:33:32.703Z,75.62
2017-11-15T00:34:32.624Z,75.72
2017-11-15T00:35:32.528Z,76.10
2017-11-15T00:36:32.438Z,75.34
2017-11-15T00:37:32.357Z,75.81
2017-11-15T00:38:32.257Z,75.24
2017-11-15T00:39:32.175Z,75.15
2017-11-15T00:40:32.086Z,75.62
2017-11-15T00:41:31.999Z,75.72
2017-11-15T00:42:31.916Z,75.24
2017-11-15T00:43:31.824Z,75.24
2017-11-15T00:44:31.736Z,75.05
2017-11-15T00:45:31.650Z,75.72
2017-11-15T00:46:31.564Z,75.53
2017-11-15T00:47:31.483Z,75.91
2017-11-15T00:48:31.385Z,76.01
2017-11-15T00:49:31.292Z,75.53
2017-11-15T00:50:31.205Z,75.24
2017-11-15T00:51:31.117Z,74.87
2017-11-15T00:52:31.029Z,75.05
2017-11-15T00:53:30.945Z,75.05
2017-11-15T00:54:30.857Z,75.91
2017-11-15T00:55:30.817Z,76.01
2017-11-15T00:56:30.680Z,75.91
2017-11-15T00:57:30.595Z,75.81
2017-11-15T00:58:30.503Z,75.53
2017-11-15T00:59:30.425Z,75.53
2017-11-15T01:00:30.339Z,76.29
2017-11-15T01:01:30.250Z,75.91
2017-11-15T01:02:30.161Z,76.39
2017-11-15T01:03:30.069Z,76.76
2017-11-15T01:04:29.976Z,76.29
2017-11-15T01:05:29.881Z,76.48
2017-11-15T01:06:29.797Z,76.48
2017-11-15T01:07:29.706Z,75.91
2017-11-15T01:08:29.622Z,76.57
2017-11-15T01:09:29.554Z,76.01
2017-11-15T01:10:29.443Z,76.48
2017-11-15T01:11:29.356Z,76.48
2017-11-15T01:12:29.269Z,76.10
2017-11-15T01:13:29.201Z,76.10
2017-11-15T01:14:29.101Z,75.81
2017-11-15T01:15:29.013Z,75.91
2017-11-15T01:16:28.930Z,75.91
2017-11-15T01:17:28.833Z,75.81
2017-11-15T01:18:28.734Z,75.72
2017-11-15T01:19:28.648Z,75.91
2017-11-15T01:20:28.562Z,75.81
2017-11-15T01:21:28.471Z,76.10
2017-11-15T01:22:28.383Z,75.81
2017-11-15T01:23:28.292Z,75.43
2017-11-15T01:24:28.213Z,75.81
2017-11-15T01:25:28.131Z,76.01
2017-11-15T01:26:28.033Z,76.57
2017-11-15T01:27:27.936Z,76.29
2017-11-15T01:28:27.859Z,75.81
2017-11-15T01:29:27.770Z,75.81
2017-11-15T01:30:27.680Z,75.72
2017-11-15T01:31:27.602Z,75.81
2017-11-15T01:32:27.498Z,75.91
2017-11-15T01:33:27.413Z,75.81
2017-11-15T01:34:27.325Z,75.91
2017-11-15T01:35:27.233Z,75.72
2017-11-15T01:36:27.152Z,76.01
2017-11-15T01:37:27.063Z,76.29
2017-11-15T01:38:26.983Z,76.20
2017-11-15T01:39:26.881Z,75.81
2017-11-15T01:40:26.792Z,75.15
2017-11-15T01:41:26.711Z,75.81
2017-11-15T01:42:26.625Z,75.62
2017-11-15T01:43:26.529Z,75.53
2017-11-15T01:44:26.450Z,75.68
2017-11-15T01:45:26.358Z,75.78
2017-11-15T01:46:26.261Z,76.01
2017-11-15T01:47:26.171Z,76.01
2017-11-15T01:48:26.085Z,75.43
2017-11-15T01:49:26.037Z,75.62
2017-11-15T01:50:25.912Z,75.24
2017-11-15T01:51:25.819Z,75.34
2017-11-15T01:52:25.739Z,74.73
2017-11-15T01:53:25.650Z,75.15
2017-11-15T01:54:25.558Z,74.92
2017-11-15T01:55:25.477Z,75.02
2017-11-15T01:56:25.377Z,75.11
2017-11-15T01:57:25.290Z,75.11
2017-11-15T01:58:25.198Z,74.58
2017-11-15T01:59:25.133Z,74.26
2017-11-15T02:00:25.028Z,75.21
2017-11-15T02:01:24.938Z,75.31
2017-11-15T02:02:24.850Z,75.02
2017-11-15T02:03:24.761Z,75.34
2017-11-15T02:04:24.679Z,74.73
2017-11-15T02:05:24.612Z,75.21
2017-11-15T02:06:24.503Z,75.31
2017-11-15T02:07:24.414Z,74.73
2017-11-15T02:08:24.318Z,75.02
2017-11-15T02:09:24.235Z,74.83
2017-11-15T02:10:24.142Z,75.21
2017-11-15T02:11:24.055Z,74.73
2017-11-15T02:12:23.973Z,74.20
2017-11-15T02:13:23.881Z,74.20
2017-11-15T02:14:23.785Z,74.30
2017-11-15T02:15:23.698Z,74.26
2017-11-15T02:16:23.611Z,75.02
2017-11-15T02:17:23.520Z,75.96
2017-11-15T02:18:23.439Z,75.96
2017-11-15T02:19:23.366Z,75.68
2017-11-15T02:20:23.268Z,75.11
2017-11-15T02:21:23.167Z,75.40
2017-11-15T02:22:23.075Z,75.11
2017-11-15T02:23:22.995Z,75.31
2017-11-15T02:24:22.902Z,75.87
2017-11-15T02:25:22.810Z,75.68
2017-11-15T02:26:22.726Z,75.02
2017-11-15T02:27:22.634Z,75.11
2017-11-15T02:28:22.555Z,75.21
2017-11-15T02:29:22.459Z,75.40
2017-11-15T02:30:22.368Z,75.40
2017-11-15T02:31:22.276Z,75.40
2017-11-15T02:32:22.193Z,75.49
2017-11-15T02:33:22.100Z,75.68
2017-11-15T02:34:22.015Z,75.78
2017-11-15T02:35:21.928Z,75.68
2017-11-15T02:36:21.843Z,75.78
2017-11-15T02:37:21.750Z,75.68
2017-11-15T02:38:21.658Z,75.68
2017-11-15T02:39:21.570Z,75.87
2017-11-15T02:40:21.485Z,75.49
2017-11-15T02:41:21.418Z,75.68
2017-11-15T02:42:21.301Z,75.21
2017-11-15T02:43:21.218Z,75.02
2017-11-15T02:44:21.146Z,75.49
2017-11-15T02:45:21.045Z,75.68
2017-11-15T02:46:20.966Z,75.68
2017-11-15T02:47:20.955Z,75.78
2017-11-15T02:48:20.781Z,76.34
2017-11-15T02:49:20.683Z,76.15
2017-11-15T02:50:20.590Z,75.87
2017-11-15T02:51:20.504Z,76.25
2017-11-15T02:52:20.442Z,75.59
2017-11-15T02:53:20.326Z,75.31
2017-11-15T02:54:20.240Z,76.44
2017-11-15T02:55:20.150Z,76.44
2017-11-15T02:56:20.064Z,75.87
2017-11-15T02:57:19.980Z,75.68
2017-11-15T02:58:19.886Z,75.59
2017-11-15T02:59:19.794Z,75.68
2017-11-15T03:00:19.718Z,75.68
2017-11-15T03:01:19.649Z,75.59
2017-11-15T03:02:19.534Z,75.96
2017-11-15T03:03:19.458Z,75.49
2017-11-15T03:04:19.352Z,76.15
2017-11-15T03:05:19.264Z,76.15
2017-11-15T03:06:19.185Z,76.34
2017-11-15T03:07:19.083Z,76.34
2017-11-15T03:08:18.998Z,76.82
2017-11-15T03:09:18.908Z,76.73
2017-11-15T03:10:18.820Z,77.11
2017-11-15T03:11:18.734Z,77.20
2017-11-15T03:12:18.639Z,76.92
2017-11-15T03:13:18.555Z,76.34
2017-11-15T03:14:18.484Z,76.34
2017-11-15T03:15:18.377Z,76.44
2017-11-15T03:16:18.300Z,75.87
2017-11-15T03:17:18.223Z,75.96
2017-11-15T03:18:18.108Z,76.15
2017-11-15T03:19:18.026Z,76.34
2017-11-15T03:20:17.933Z,76.82
2017-11-15T03:21:17.837Z,76.92
2017-11-15T03:22:17.801Z,76.63
2017-11-15T03:23:17.666Z,76.73
2017-11-15T03:24:17.579Z,76.63
2017-11-15T03:25:17.493Z,76.73
2017-11-15T03:26:17.395Z,76.73
2017-11-15T03:27:17.305Z,76.73
2017-11-15T03:28:17.223Z,76.82
2017-11-15T03:29:17.130Z,76.92
2017-11-15T03:30:17.053Z,76.54
2017-11-15T03:31:16.954Z,76.06
2017-11-15T03:32:16.867Z,76.34
2017-11-15T03:33:16.784Z,76.82
2017-11-15T03:34:16.686Z,76.82
2017-11-15T03:35:16.604Z,76.63
2017-11-15T03:36:16.506Z,76.73
2017-11-15T03:37:16.418Z,76.44
2017-11-15T03:38:16.343Z,76.92
2017-11-15T03:39:16.247Z,76.73
2017-11-15T03:40:16.184Z,76.54
2017-11-15T03:41:16.114Z,76.73
2017-11-15T03:42:15.972Z,76.54
2017-11-15T03:43:15.895Z,76.59
2017-11-15T03:44:15.794Z,76.92
2017-11-15T03:45:15.712Z,76.82
2017-11-15T03:46:15.627Z,76.73
2017-11-15T03:47:15.529Z,77.25
2017-11-15T03:48:15.438Z,77.29
2017-11-15T03:49:15.387Z,76.78
2017-11-15T03:50:15.280Z,77.16
2017-11-15T03:51:15.188Z,77.20
2017-11-15T03:52:15.090Z,77.11
2017-11-15T03:53:14.995Z,77.11
2017-11-15T03:54:14.908Z,76.44
2017-11-15T03:55:14.815Z,77.16
2017-11-15T03:56:14.728Z,77.35
2017-11-15T03:57:14.633Z,76.63
2017-11-15T03:58:14.554Z,76.44
2017-11-15T03:59:14.464Z,76.92
2017-11-15T04:00:14.377Z,76.82
2017-11-15T04:01:14.294Z,76.63
2017-11-15T04:02:14.195Z,76.15
2017-11-15T04:03:14.106Z,76.73
2017-11-15T04:04:14.044Z,76.63
2017-11-15T04:05:13.933Z,76.82
2017-11-15T04:06:13.836Z,76.73
2017-11-15T04:07:13.746Z,75.96
2017-11-15T04:08:13.670Z,75.78
2017-11-15T04:09:13.571Z,75.68
2017-11-15T04:10:13.488Z,75.78
2017-11-15T04:11:13.390Z,76.15
2017-11-15T04:12:13.365Z,76.92
2017-11-15T04:13:13.215Z,76.92
2017-11-15T04:14:13.123Z,76.25
2017-11-15T04:15:13.063Z,76.34
2017-11-15T04:16:12.953Z,75.68
2017-11-15T04:17:12.866Z,75.96
2017-11-15T04:18:12.776Z,75.96
2017-11-15T04:19:12.684Z,75.96
2017-11-15T04:20:12.599Z,75.87
2017-11-15T04:21:12.511Z,75.78
2017-11-15T04:22:12.411Z,75.68
2017-11-15T04:23:12.325Z,75.87
2017-11-15T04:24:12.246Z,75.31
2017-11-15T04:25:12.144Z,75.49
2017-11-15T04:26:12.055Z,75.87
2017-11-15T04:27:11.968Z,75.96
2017-11-15T04:28:11.878Z,75.78
2017-11-15T04:29:11.795Z,75.40
2017-11-15T04:30:11.719Z,75.36
2017-11-15T04:31:11.617Z,75.87
2017-11-15T04:32:11.523Z,75.78
2017-11-15T04:33:11.444Z,76.06
2017-11-15T04:34:11.349Z,75.87
2017-11-15T04:35:11.259Z,76.21
2017-11-15T04:36:11.166Z,75.64
2017-11-15T04:37:11.076Z,76.50
2017-11-15T04:38:10.989Z,76.78
2017-11-15T04:39:10.900Z,76.78
2017-11-15T04:40:10.831Z,76.92
2017-11-15T04:41:10.723Z,75.87
2017-11-15T04:42:10.640Z,75.59
2017-11-15T04:43:10.545Z,75.07
2017-11-15T04:44:10.456Z,75.64
2017-11-15T04:45:10.366Z,75.74
2017-11-15T04:46:10.283Z,75.93
2017-11-15T04:47:10.186Z,76.03
2017-11-15T04:48:10.101Z,76.03
2017-11-15T04:49:10.011Z,75.40
2017-11-15T04:50:09.917Z,75.40
2017-11-15T04:51:09.856Z,75.78
2017-11-15T04:52:09.746Z,75.84
2017-11-15T04:53:09.720Z,75.87
2017-11-15T04:54:09.567Z,76.21
2017-11-15T04:55:09.472Z,76.59
2017-11-15T04:56:09.390Z,76.31
2017-11-15T04:57:09.295Z,76.03
2017-11-15T04:58:09.204Z,76.03
2017-11-15T04:59:09.113Z,76.31
2017-11-15T05:00:09.025Z,76.40
2017-11-15T05:01:08.942Z,76.50
2017-11-15T05:02:08.854Z,76.40
2017-11-15T05:03:08.781Z,76.78
2017-11-15T05:04:08.673Z,76.68
2017-11-15T05:05:08.584Z,76.59
2017-11-15T05:06:08.490Z,76.31
2017-11-15T05:07:08.410Z,76.68
2017-11-15T05:08:08.336Z,76.40
2017-11-15T05:09:08.222Z,76.87
2017-11-15T05:10:08.134Z,76.97
2017-11-15T05:11:08.046Z,77.25
2017-11-15T05:12:07.956Z,77.35
2017-11-15T05:13:07.866Z,77.25
2017-11-15T05:14:07.777Z,77.35
2017-11-15T05:15:07.708Z,77.16
2017-11-15T05:16:07.609Z,77.25
2017-11-15T05:17:07.511Z,77.35
2017-11-15T05:18:07.436Z,76.68
2017-11-15T05:19:07.348Z,77.25
2017-11-15T05:20:07.264Z,77.35
2017-11-15T05:21:07.155Z,77.35
2017-11-15T05:22:07.063Z,77.25
2017-11-15T05:23:06.968Z,76.97
2017-11-15T05:24:06.883Z,77.45
2017-11-15T05:25:06.793Z,77.06
2017-11-15T05:26:06.706Z,77.16
2017-11-15T05:27:06.616Z,77.06
2017-11-15T05:28:06.524Z,77.16
2017-11-15T05:29:06.441Z,77.06
2017-11-15T05:30:06.344Z,76.68
2017-11-15T05:31:06.260Z,76.50
2017-11-15T05:32:06.189Z,76.68
2017-11-15T05:33:06.089Z,76.78
2017-11-15T05:34:06.011Z,76.50
2017-11-15T05:35:05.903Z,76.78
2017-11-15T05:36:05.823Z,76.50
2017-11-15T05:37:05.741Z,76.97
2017-11-15T05:38:05.634Z,76.59
2017-11-15T05:39:05.562Z,76.87
2017-11-15T05:40:05.451Z,77.35
2017-11-15T05:41:05.361Z,77.16
2017-11-15T05:42:05.305Z,76.93
2017-11-15T05:43:05.189Z,76.97
2017-11-15T05:44:05.098Z,77.16
2017-11-15T05:45:05.005Z,77.35
2017-11-15T05:46:04.936Z,77.16
2017-11-15T05:47:04.830Z,77.35
2017-11-15T05:48:04.742Z,77.45
2017-11-15T05:49:04.650Z,77.16
2017-11-15T05:50:04.570Z,77.16
2017-11-15T05:51:04.478Z,77.16
2017-11-15T05:52:04.387Z,77.35
2017-11-15T05:53:04.303Z,77.16
2017-11-15T05:54:04.209Z,76.87
2017-11-15T05:55:04.113Z,77.25
2017-11-15T05:56:04.035Z,77.35
2017-11-15T05:57:03.937Z,77.25
2017-11-15T05:58:03.845Z,77.16
2017-11-15T05:59:03.768Z,77.25
2017-11-15T06:00:03.666Z,77.54
2017-11-15T06:01:03.575Z,77.25
2017-11-15T06:02:03.494Z,77.16
2017-11-15T06:03:03.446Z,77.16
2017-11-15T06:04:03.315Z,77.73
2017-11-15T06:05:03.226Z,77.35
2017-11-15T06:06:03.134Z,77.16
2017-11-15T06:07:03.045Z,77.06
2017-11-15T06:08:02.953Z,77.06
2017-11-15T06:09:02.861Z,77.16
2017-11-15T06:10:02.879Z,77.06
2017-11-15T06:11:02.790Z,77.16
2017-11-15T06:12:02.684Z,77.16
2017-11-15T06:13:02.565Z,78.11
2017-11-15T06:14:02.449Z,77.59
2017-11-15T06:15:02.415Z,78.11
2017-11-15T06:16:02.276Z,78.11
2017-11-15T06:17:02.185Z,77.54
2017-11-15T06:18:02.124Z,77.54
2017-11-15T06:19:02.042Z,77.64
2017-11-15T06:20:01.938Z,77.83
2017-11-15T06:21:01.886Z,78.20
2017-11-15T06:22:01.721Z,78.16
2017-11-15T06:23:01.612Z,78.11
2017-11-15T06:24:01.618Z,77.54
2017-11-15T06:25:01.463Z,77.83
2017-11-15T06:26:01.444Z,77.35
2017-11-15T06:27:01.255Z,77.35
2017-11-15T06:28:01.191Z,77.16
2017-11-15T06:29:01.152Z,76.97
2017-11-15T06:30:00.996Z,77.16
2017-11-15T06:31:00.913Z,77.25
2017-11-15T06:32:00.918Z,77.16
2017-11-15T06:33:00.903Z,77.40
2017-11-15T06:34:00.648Z,77.59
2017-11-15T06:35:00.551Z,78.45
2017-11-15T06:36:00.630Z,78.54
2017-11-15T06:37:00.508Z,78.02
2017-11-15T06:38:00.265Z,77.64
2017-11-15T06:39:00.176Z,77.64
2017-11-15T06:40:00.091Z,77.83
2017-11-15T06:40:59.995Z,77.64
2017-11-15T06:41:59.913Z,77.73
2017-11-15T06:42:59.815Z,77.64
2017-11-15T06:43:59.741Z,77.88
2017-11-15T06:44:59.649Z,78.35
2017-11-15T06:45:59.553Z,78.54
2017-11-15T06:46:59.461Z,78.64
2017-11-15T06:47:59.376Z,77.92
2017-11-15T06:48:59.283Z,77.54
2017-11-15T06:49:59.201Z,77.92
2017-11-15T06:50:59.101Z,77.45
2017-11-15T06:51:59.041Z,77.25
2017-11-15T06:52:58.930Z,78.35
2017-11-15T06:53:58.840Z,81.10
2017-11-15T06:54:58.746Z,83.28
2017-11-15T06:55:58.660Z,83.56
2017-11-15T06:56:58.561Z,83.66
2017-11-15T06:57:58.484Z,83.04
2017-11-15T06:58:58.398Z,81.43
2017-11-15T06:59:58.301Z,79.91
2017-11-15T07:00:58.207Z,79.06
2017-11-15T07:01:58.125Z,78.58
2017-11-15T07:02:58.027Z,78.20
2017-11-15T07:03:57.934Z,77.54
2017-11-15T07:04:57.843Z,77.73
2017-11-15T07:05:57.793Z,77.16
2017-11-15T07:06:57.669Z,77.16
2017-11-15T07:07:57.580Z,77.06
2017-11-15T07:08:57.488Z,77.25
2017-11-15T07:09:57.399Z,76.87
2017-11-15T07:10:57.320Z,76.78
2017-11-15T07:11:57.216Z,76.68
2017-11-15T07:12:57.130Z,76.40
2017-11-15T07:13:57.047Z,76.78
2017-11-15T07:14:56.956Z,76.68
2017-11-15T07:15:56.865Z,76.68
2017-11-15T07:16:56.780Z,75.93
2017-11-15T07:17:56.684Z,75.64
2017-11-15T07:18:56.599Z,75.84
2017-11-15T07:19:56.526Z,75.64
2017-11-15T07:20:56.423Z,75.93
2017-11-15T07:21:56.343Z,75.68
2017-11-15T07:22:56.249Z,75.87
2017-11-15T07:23:56.164Z,75.59
2017-11-15T07:24:56.086Z,75.02
2017-11-15T07:25:55.992Z,75.21
2017-11-15T07:26:55.909Z,74.64
2017-11-15T07:27:55.810Z,76.25
2017-11-15T07:28:55.747Z,75.53
2017-11-15T07:29:55.708Z,74.77
2017-11-15T07:30:55.541Z,73.92
2017-11-15T07:31:56.175Z,72.91
2017-11-15T07:32:55.361Z,72.06
2017-11-15T07:33:55.277Z,71.11
2017-11-15T07:34:55.203Z,70.29
2017-11-15T07:35:55.107Z,69.43
2017-11-15T07:36:55.019Z,68.42
2017-11-15T07:37:54.939Z,67.47
2017-11-15T07:38:54.862Z,67.66
2017-11-15T07:39:54.807Z,66.33
2017-11-15T07:40:54.688Z,65.99
2017-11-15T07:41:54.601Z,65.51
2017-11-15T07:42:54.520Z,64.84
2017-11-15T07:43:54.434Z,64.46
2017-11-15T07:44:54.361Z,63.83
2017-11-15T07:45:54.268Z,63.73
2017-11-15T07:46:54.178Z,63.17
2017-11-15T07:47:54.099Z,63.07
2017-11-15T07:48:54.017Z,62.78
2017-11-15T07:49:53.942Z,61.96
2017-11-15T07:50:53.855Z,61.48
2017-11-15T07:51:53.763Z,61.00
2017-11-15T07:52:53.681Z,60.82
2017-11-15T07:53:53.601Z,61.10
2017-11-15T07:54:53.517Z,61.19
2017-11-15T07:55:53.435Z,61.29
2017-11-15T07:56:53.371Z,60.27
2017-11-15T07:57:53.276Z,58.94
2017-11-15T07:58:53.192Z,59.03
2017-11-15T07:59:53.112Z,58.50
2017-11-15T08:00:53.028Z,58.30
2017-11-15T08:01:52.959Z,58.30
2017-11-15T08:02:52.868Z,57.07
2017-11-15T08:03:52.784Z,57.28
2017-11-15T08:04:52.714Z,56.81
2017-11-15T08:05:52.627Z,56.52
2017-11-15T08:06:52.543Z,56.33
2017-11-15T08:07:52.470Z,55.95
2017-11-15T08:08:52.386Z,55.47
2017-11-15T08:09:52.296Z,55.47
2017-11-15T08:10:52.217Z,55.60
2017-11-15T08:11:52.139Z,55.09
2017-11-15T08:12:52.079Z,55.98
2017-11-15T08:13:51.974Z,54.83
2017-11-15T08:14:51.898Z,54.57
2017-11-15T08:15:51.829Z,53.97
2017-11-15T08:16:51.743Z,53.88
2017-11-15T08:17:51.664Z,54.17
2017-11-15T08:18:51.584Z,55.31
2017-11-15T08:19:51.532Z,54.83
2017-11-15T08:20:51.422Z,54.26
2017-11-15T08:21:51.343Z,53.69
2017-11-15T08:22:51.279Z,53.53
2017-11-15T08:23:51.176Z,53.24
2017-11-15T08:24:51.097Z,52.98
2017-11-15T08:25:51.020Z,52.59
2017-11-15T08:26:50.938Z,51.54
2017-11-15T08:27:50.860Z,51.64
2017-11-15T08:28:50.787Z,51.07
2017-11-15T08:29:50.701Z,50.62
2017-11-15T08:30:50.621Z,50.49
2017-11-15T08:31:50.550Z,50.81
2017-11-15T08:32:50.466Z,50.33
2017-11-15T08:33:50.388Z,50.45
2017-11-15T08:34:50.309Z,50.24
2017-11-15T08:35:50.225Z,49.59
2017-11-15T08:36:50.160Z,49.49
2017-11-15T08:37:50.077Z,49.59
2017-11-15T08:38:49.996Z,49.88
2017-11-15T08:39:49.914Z,48.64
2017-11-15T08:40:49.846Z,48.54
2017-11-15T08:41:49.765Z,48.28
2017-11-15T08:42:49.688Z,47.99
2017-11-15T08:43:49.608Z,47.71
2017-11-15T08:44:49.528Z,47.23
2017-11-15T08:45:49.447Z,47.42
2017-11-15T08:46:49.367Z,47.13
2017-11-15T08:47:49.293Z,47.71
2017-11-15T08:48:49.211Z,47.61
2017-11-15T08:49:49.133Z,46.94
2017-11-15T08:50:49.058Z,47.03
2017-11-15T08:51:48.980Z,47.03
2017-11-15T08:52:48.901Z,46.30
2017-11-15T08:53:48.824Z,45.34
2017-11-15T08:54:48.757Z,45.53
2017-11-15T08:55:48.676Z,45.15
2017-11-15T08:56:48.594Z,45.05
2017-11-15T08:57:48.520Z,44.67
2017-11-15T08:58:48.445Z,44.57
2017-11-15T08:59:48.365Z,44.38
2017-11-15T09:00:48.287Z,44.57
2017-11-15T09:01:48.231Z,44.79
2017-11-15T09:02:48.133Z,44.76
2017-11-15T09:03:48.055Z,44.48
2017-11-15T09:04:47.983Z,44.50
2017-11-15T09:05:47.899Z,44.59
2017-11-15T09:06:47.830Z,44.12
2017-11-15T09:07:47.751Z,44.40
2017-11-15T09:08:47.676Z,44.69
2017-11-15T09:09:47.595Z,44.04
2017-11-15T09:10:47.523Z,43.85
2017-11-15T09:11:47.442Z,42.80
2017-11-15T09:12:47.369Z,43.47
2017-11-15T09:13:47.349Z,43.35
2017-11-15T09:14:47.215Z,43.63
2017-11-15T09:15:47.146Z,43.56
2017-11-15T09:16:47.075Z,42.60
2017-11-15T09:17:46.993Z,42.63
2017-11-15T09:18:46.916Z,42.14
2017-11-15T09:19:46.841Z,42.34
2017-11-15T09:20:46.763Z,41.96
2017-11-15T09:21:46.693Z,41.96
2017-11-15T09:22:46.617Z,42.34
2017-11-15T09:23:46.543Z,42.34
2017-11-15T09:24:46.467Z,42.72
2017-11-15T09:25:46.390Z,41.28
2017-11-15T09:26:46.317Z,42.05
2017-11-15T09:27:46.238Z,41.67
2017-11-15T09:28:46.169Z,41.50
2017-11-15T09:29:46.087Z,41.31
2017-11-15T09:30:46.010Z,40.83
2017-11-15T09:31:45.939Z,40.54
2017-11-15T09:32:45.862Z,40.92
2017-11-15T09:33:45.791Z,40.44
2017-11-15T09:34:45.712Z,41.50
2017-11-15T09:35:45.647Z,41.21
2017-11-15T09:36:45.563Z,41.23
2017-11-15T09:37:45.495Z,41.04
2017-11-15T09:38:45.416Z,40.84
2017-11-15T09:39:45.343Z,40.75
2017-11-15T09:40:45.278Z,40.66
2017-11-15T09:41:45.191Z,40.83
2017-11-15T09:42:45.119Z,40.84
2017-11-15T09:43:45.045Z,40.37
2017-11-15T09:44:44.987Z,41.13
2017-11-15T09:45:44.901Z,41.71
2017-11-15T09:46:44.827Z,40.47
2017-11-15T09:47:44.765Z,40.17
2017-11-15T09:48:44.679Z,40.94
2017-11-15T09:49:44.600Z,40.75
2017-11-15T09:50:44.523Z,40.84
2017-11-15T09:51:44.449Z,41.04
2017-11-15T09:52:44.383Z,41.04
2017-11-15T09:53:44.305Z,41.40
2017-11-15T09:54:44.230Z,40.84
2017-11-15T09:55:44.158Z,40.84
2017-11-15T09:56:44.099Z,40.84
2017-11-15T09:57:44.007Z,40.83
2017-11-15T09:58:43.949Z,41.33
2017-11-15T09:59:43.871Z,41.21
2017-11-15T10:00:43.789Z,41.52
2017-11-15T10:01:43.725Z,41.54
2017-11-15T10:02:43.642Z,41.54
2017-11-15T10:03:43.567Z,41.42
2017-11-15T10:04:43.499Z,41.35
2017-11-15T10:05:43.420Z,40.75
2017-11-15T10:06:43.350Z,40.94
2017-11-15T10:07:43.276Z,40.66
2017-11-15T10:08:43.203Z,41.02
2017-11-15T10:09:43.132Z,41.61
2017-11-15T10:10:43.066Z,41.23
2017-11-15T10:11:42.980Z,41.33
2017-11-15T10:12:42.914Z,41.42
2017-11-15T10:13:42.846Z,41.42
2017-11-15T10:14:42.763Z,41.73
2017-11-15T10:15:42.694Z,41.16
2017-11-15T10:16:42.622Z,41.44
2017-11-15T10:17:42.578Z,41.06
2017-11-15T10:18:42.473Z,40.96
2017-11-15T10:19:42.403Z,40.58
2017-11-15T10:20:42.332Z,40.50
2017-11-15T10:21:42.261Z,40.39
2017-11-15T10:22:42.213Z,40.00
2017-11-15T10:23:42.126Z,40.83
2017-11-15T10:24:42.041Z,41.42
2017-11-15T10:25:41.974Z,41.23
2017-11-15T10:26:41.897Z,41.04
2017-11-15T10:27:41.824Z,41.04
2017-11-15T10:28:41.754Z,41.04
2017-11-15T10:29:41.685Z,41.23
2017-11-15T10:30:41.612Z,41.16
2017-11-15T10:31:41.537Z,41.16
2017-11-15T10:32:41.464Z,41.80
2017-11-15T10:33:41.392Z,41.35
2017-11-15T10:34:41.325Z,41.44
2017-11-15T10:35:41.261Z,40.96
2017-11-15T10:36:41.192Z,40.99
2017-11-15T10:37:41.115Z,40.96
2017-11-15T10:38:41.037Z,40.87
2017-11-15T10:39:40.965Z,40.87
2017-11-15T10:40:40.897Z,41.25
2017-11-15T10:41:40.829Z,41.16
2017-11-15T10:42:40.755Z,41.63
2017-11-15T10:43:40.680Z,41.35
2017-11-15T10:44:40.607Z,41.06
2017-11-15T10:45:40.538Z,41.54
2017-11-15T10:46:40.540Z,42.11
2017-11-15T10:47:40.402Z,41.73
2017-11-15T10:48:40.324Z,41.44
2017-11-15T10:49:40.255Z,41.25
2017-11-15T10:50:40.186Z,42.40
2017-11-15T10:51:40.116Z,41.35
2017-11-15T10:52:40.046Z,41.25
2017-11-15T10:53:39.975Z,41.44
2017-11-15T10:54:39.925Z,41.44
2017-11-15T10:55:39.831Z,42.21
2017-11-15T10:56:39.766Z,41.06
2017-11-15T10:57:39.689Z,41.44
2017-11-15T10:58:39.623Z,41.35
2017-11-15T10:59:39.544Z,41.63
2017-11-15T11:00:39.481Z,41.44
2017-11-15T11:01:39.403Z,41.93
2017-11-15T11:02:39.335Z,41.35
2017-11-15T11:03:39.264Z,42.02
2017-11-15T11:04:39.192Z,41.37
2017-11-15T11:05:39.125Z,42.04
2017-11-15T11:06:39.052Z,42.11
2017-11-15T11:07:38.981Z,42.13
2017-11-15T11:08:38.912Z,41.85
2017-11-15T11:09:38.836Z,41.56
2017-11-15T11:10:38.765Z,41.17
2017-11-15T11:11:38.691Z,40.99
2017-11-15T11:12:38.618Z,41.17
2017-11-15T11:13:38.547Z,40.41
2017-11-15T11:14:38.474Z,40.67
2017-11-15T11:15:38.406Z,41.06
2017-11-15T11:16:38.335Z,41.63
2017-11-15T11:17:38.259Z,40.77
2017-11-15T11:18:38.186Z,41.54
2017-11-15T11:19:38.127Z,41.44
2017-11-15T11:20:38.043Z,41.37
2017-11-15T11:21:37.973Z,41.27
2017-11-15T11:22:37.898Z,40.96
2017-11-15T11:23:37.825Z,41.44
2017-11-15T11:24:37.752Z,41.25
2017-11-15T11:25:37.682Z,41.06
2017-11-15T11:26:37.605Z,41.25
2017-11-15T11:27:37.533Z,41.46
2017-11-15T11:28:37.464Z,42.21
2017-11-15T11:29:37.386Z,42.11
2017-11-15T11:30:37.309Z,41.63
2017-11-15T11:31:37.235Z,42.11
2017-11-15T11:32:37.174Z,42.50
2017-11-15T11:33:37.087Z,41.17
2017-11-15T11:34:37.027Z,41.94
2017-11-15T11:35:36.937Z,42.50
2017-11-15T11:36:36.867Z,42.60
2017-11-15T11:37:36.787Z,42.02
2017-11-15T11:38:36.743Z,42.21
2017-11-15T11:39:36.649Z,42.50
2017-11-15T11:40:36.552Z,42.60
2017-11-15T11:41:36.478Z,42.60
2017-11-15T11:42:36.410Z,43.36
2017-11-15T11:43:36.324Z,43.27
2017-11-15T11:44:36.249Z,43.27
2017-11-15T11:45:36.165Z,42.98
2017-11-15T11:46:36.084Z,42.47
2017-11-15T11:47:36.006Z,41.61
2017-11-15T11:48:35.928Z,42.38
2017-11-15T11:49:35.851Z,42.86
2017-11-15T11:50:35.779Z,42.82
2017-11-15T11:51:35.697Z,44.54
2017-11-15T11:52:35.625Z,45.23
2017-11-15T11:53:35.531Z,45.26
2017-11-15T11:54:35.459Z,44.01
2017-11-15T11:55:35.371Z,43.73
2017-11-15T11:56:35.289Z,43.44
2017-11-15T11:57:35.211Z,43.70
2017-11-15T11:58:35.132Z,42.46
2017-11-15T11:59:35.051Z,42.17
2017-11-15T12:00:34.971Z,42.17
2017-11-15T12:01:34.892Z,42.74
2017-11-15T12:02:34.803Z,42.55
2017-11-15T12:03:34.721Z,42.36
2017-11-15T12:04:34.661Z,42.65
2017-11-15T12:05:34.565Z,43.60
2017-11-15T12:06:34.485Z,43.49
2017-11-15T12:07:34.400Z,44.06
2017-11-15T12:08:34.325Z,44.73
2017-11-15T12:09:34.241Z,44.45
2017-11-15T12:10:34.159Z,44.26
2017-11-15T12:11:34.080Z,43.87
2017-11-15T12:12:33.995Z,44.40
2017-11-15T12:13:33.922Z,45.43
2017-11-15T12:14:33.829Z,46.80
2017-11-15T12:15:33.751Z,46.61
2017-11-15T12:16:33.670Z,45.67
2017-11-15T12:17:33.587Z,44.79
2017-11-15T12:18:33.511Z,46.51
2017-11-15T12:19:33.440Z,45.94
2017-11-15T12:20:33.346Z,46.41
2017-11-15T12:21:33.258Z,45.15
2017-11-15T12:22:33.176Z,46.94
2017-11-15T12:23:33.100Z,46.75
2017-11-15T12:24:33.012Z,47.42
2017-11-15T12:25:32.939Z,48.21
2017-11-15T12:26:32.854Z,48.39
2017-11-15T12:27:32.760Z,47.16
2017-11-15T12:28:32.693Z,47.82
2017-11-15T12:29:32.606Z,47.25
2017-11-15T12:30:32.539Z,46.77
2017-11-15T12:31:32.439Z,46.67
2017-11-15T12:32:32.356Z,47.13
2017-11-15T12:33:32.272Z,47.42
2017-11-15T12:34:32.186Z,48.02
2017-11-15T12:35:32.125Z,48.11
2017-11-15T12:36:32.023Z,48.49
2017-11-15T12:37:31.947Z,48.66
2017-11-15T12:38:31.866Z,48.38
2017-11-15T12:39:31.778Z,48.78
2017-11-15T12:40:31.690Z,49.04
2017-11-15T12:41:31.730Z,48.64
2017-11-15T12:42:31.540Z,48.83
2017-11-15T12:43:31.452Z,49.78
2017-11-15T12:44:31.382Z,49.88
2017-11-15T12:45:31.286Z,51.00
2017-11-15T12:46:31.202Z,51.48
2017-11-15T12:47:31.143Z,50.81
2017-11-15T12:48:31.046Z,50.43
2017-11-15T12:49:30.950Z,50.04
2017-11-15T12:50:30.869Z,49.85
2017-11-15T12:51:30.784Z,50.45